sensor_id;sensor_type;location;lat;lon;timestamp;P1;durP1;ratioP1;P2;durP2;ratioP2
6693;SDS011;3384;42.628;23.380;2022-12-26T19:08:13;10.13;;;8.03;;
6693;SDS011;3384;42.628;23.380;2022-12-26T19:10:40;17.33;;;8.80;;
6693;SDS011;3384;42.628;23.380;2022-12-26T19:13:10;21.83;;;12.07;;
6693;SDS011;3384;42.628;23.380;2022-12-26T19:15:37;17.37;;;11.57;;
6693;SDS011;3384;42.628;23.380;2022-12-26T19:18:09;20.23;;;12.83;;
6693;SDS011;3384;42.628;23.380;2022-12-26T19:20:36;20.40;;;11.43;;
6693;SDS011;3384;42.628;23.380;2022-12-26T19:23:02;19.80;;;11.40;;
6693;SDS011;3384;42.628;23.380;2022-12-26T19:25:31;18.70;;;12.23;;
6693;SDS011;3384;42.628;23.380;2022-12-26T19:28:00;27.17;;;13.63;;
6693;SDS011;3384;42.628;23.380;2022-12-26T19:30:27;23.43;;;13.47;;
6693;SDS011;3384;42.628;23.380;2022-12-26T19:33:34;18.67;;;11.50;;
6693;SDS011;3384;42.628;23.380;2022-12-26T19:36:25;23.23;;;12.90;;
6693;SDS011;3384;42.628;23.380;2022-12-26T19:39:18;32.20;;;15.83;;
6693;SDS011;3384;42.628;23.380;2022-12-26T19:42:23;30.10;;;15.10;;
6693;SDS011;3384;42.628;23.380;2022-12-26T19:45:56;23.03;;;13.17;;
6693;SDS011;3384;42.628;23.380;2022-12-26T19:49:17;26.40;;;13.07;;
6693;SDS011;3384;42.628;23.380;2022-12-26T19:52:42;17.70;;;12.02;;
6693;SDS011;3384;42.628;23.380;2022-12-26T19:56:09;14.47;;;11.00;;
6693;SDS011;3384;42.628;23.380;2022-12-26T19:59:36;14.03;;;10.10;;
6693;SDS011;3384;42.628;23.380;2022-12-26T20:03:01;13.47;;;8.70;;
6693;SDS011;3384;42.628;23.380;2022-12-26T20:06:29;14.30;;;9.67;;
6693;SDS011;3384;42.628;23.380;2022-12-26T20:09:55;17.30;;;12.67;;
6693;SDS011;3384;42.628;23.380;2022-12-26T20:13:20;17.20;;;11.20;;
6693;SDS011;3384;42.628;23.380;2022-12-26T20:16:48;18.47;;;9.47;;
6693;SDS011;3384;42.628;23.380;2022-12-26T20:20:13;16.40;;;11.27;;
6693;SDS011;3384;42.628;23.380;2022-12-26T20:23:39;21.37;;;13.10;;
6693;SDS011;3384;42.628;23.380;2022-12-26T20:27:04;23.93;;;12.00;;
6693;SDS011;3384;42.628;23.380;2022-12-26T20:30:32;22.20;;;13.67;;
6693;SDS011;3384;42.628;23.380;2022-12-26T20:33:59;20.90;;;12.80;;
6693;SDS011;3384;42.628;23.380;2022-12-26T20:37:25;17.17;;;11.63;;
6693;SDS011;3384;42.628;23.380;2022-12-26T20:40:50;18.17;;;12.60;;
6693;SDS011;3384;42.628;23.380;2022-12-26T20:44:16;28.67;;;14.63;;
6693;SDS011;3384;42.628;23.380;2022-12-26T20:47:42;21.53;;;12.90;;
6693;SDS011;3384;42.628;23.380;2022-12-26T20:51:09;21.00;;;14.60;;
6693;SDS011;3384;42.628;23.380;2022-12-26T20:54:35;30.60;;;13.90;;
6693;SDS011;3384;42.628;23.380;2022-12-26T20:58:01;20.67;;;14.43;;
6693;SDS011;3384;42.628;23.380;2022-12-26T21:01:27;21.63;;;13.77;;
6693;SDS011;3384;42.628;23.380;2022-12-26T21:05:25;28.17;;;13.73;;
6693;SDS011;3384;42.628;23.380;2022-12-26T21:08:53;17.77;;;13.67;;
6693;SDS011;3384;42.628;23.380;2022-12-26T21:12:19;30.97;;;14.20;;
6693;SDS011;3384;42.628;23.380;2022-12-26T21:15:44;21.53;;;14.60;;
6693;SDS011;3384;42.628;23.380;2022-12-26T21:19:11;19.87;;;14.00;;
6693;SDS011;3384;42.628;23.380;2022-12-26T21:22:39;21.03;;;13.30;;
6693;SDS011;3384;42.628;23.380;2022-12-26T21:26:05;19.00;;;12.47;;
6693;SDS011;3384;42.628;23.380;2022-12-26T21:29:31;23.57;;;13.57;;
6693;SDS011;3384;42.628;23.380;2022-12-26T21:32:57;20.43;;;12.70;;
6693;SDS011;3384;42.628;23.380;2022-12-26T21:36:22;22.63;;;13.60;;
6693;SDS011;3384;42.628;23.380;2022-12-26T21:40:07;21.30;;;11.70;;
6693;SDS011;3384;42.628;23.380;2022-12-26T21:43:33;19.80;;;13.83;;
6693;SDS011;3384;42.628;23.380;2022-12-26T21:46:59;25.33;;;14.23;;
6693;SDS011;3384;42.628;23.380;2022-12-26T21:50:24;21.67;;;13.07;;
6693;SDS011;3384;42.628;23.380;2022-12-26T21:53:50;19.77;;;13.40;;
6693;SDS011;3384;42.628;23.380;2022-12-26T21:57:34;21.47;;;13.27;;
6693;SDS011;3384;42.628;23.380;2022-12-26T22:01:20;21.20;;;13.03;;
6693;SDS011;3384;42.628;23.380;2022-12-26T22:05:03;18.63;;;12.93;;
6693;SDS011;3384;42.628;23.380;2022-12-26T22:08:28;21.90;;;12.63;;
6693;SDS011;3384;42.628;23.380;2022-12-26T22:11:53;21.80;;;13.00;;
6693;SDS011;3384;42.628;23.380;2022-12-26T22:15:22;19.07;;;12.50;;
6693;SDS011;3384;42.628;23.380;2022-12-26T22:18:48;13.50;;;10.07;;
6693;SDS011;3384;42.628;23.380;2022-12-26T22:22:13;14.03;;;10.60;;
6693;SDS011;3384;42.628;23.380;2022-12-26T22:25:38;14.97;;;9.27;;
6693;SDS011;3384;42.628;23.380;2022-12-26T22:29:05;11.97;;;9.10;;
6693;SDS011;3384;42.628;23.380;2022-12-26T22:32:31;10.57;;;8.03;;
6693;SDS011;3384;42.628;23.380;2022-12-26T22:36:01;9.43;;;8.03;;
6693;SDS011;3384;42.628;23.380;2022-12-26T22:39:27;10.67;;;8.83;;
6693;SDS011;3384;42.628;23.380;2022-12-26T22:42:52;11.83;;;9.60;;
6693;SDS011;3384;42.628;23.380;2022-12-26T22:46:19;15.80;;;8.63;;
6693;SDS011;3384;42.628;23.380;2022-12-26T22:49:44;10.57;;;8.73;;
6693;SDS011;3384;42.628;23.380;2022-12-26T22:53:10;13.60;;;8.40;;
6693;SDS011;3384;42.628;23.380;2022-12-26T22:56:36;15.67;;;10.47;;
6693;SDS011;3384;42.628;23.380;2022-12-26T23:00:02;16.43;;;10.23;;
6693;SDS011;3384;42.628;23.380;2022-12-26T23:03:29;16.30;;;9.70;;
6693;SDS011;3384;42.628;23.380;2022-12-26T23:06:56;14.50;;;10.77;;
6693;SDS011;3384;42.628;23.380;2022-12-26T23:10:23;15.60;;;10.57;;
6693;SDS011;3384;42.628;23.380;2022-12-26T23:13:49;11.40;;;9.73;;
6693;SDS011;3384;42.628;23.380;2022-12-26T23:17:15;12.23;;;9.33;;
6693;SDS011;3384;42.628;23.380;2022-12-26T23:21:06;13.90;;;10.37;;
6693;SDS011;3384;42.628;23.380;2022-12-26T23:24:31;15.30;;;10.10;;
6693;SDS011;3384;42.628;23.380;2022-12-26T23:27:57;13.37;;;10.90;;
6693;SDS011;3384;42.628;23.380;2022-12-26T23:31:40;10.70;;;9.57;;
6693;SDS011;3384;42.628;23.380;2022-12-26T23:35:07;13.50;;;9.13;;
6693;SDS011;3384;42.628;23.380;2022-12-26T23:38:34;14.87;;;9.53;;
6693;SDS011;3384;42.628;23.380;2022-12-26T23:42:00;13.70;;;9.30;;
6693;SDS011;3384;42.628;23.380;2022-12-26T23:45:25;13.70;;;10.37;;
6693;SDS011;3384;42.628;23.380;2022-12-26T23:48:51;13.00;;;9.80;;
6693;SDS011;3384;42.628;23.380;2022-12-26T23:52:17;32.20;;;14.37;;
6693;SDS011;3384;42.628;23.380;2022-12-26T23:55:42;12.97;;;9.10;;
6693;SDS011;3384;42.628;23.380;2022-12-26T23:59:07;13.93;;;9.53;;
